Time;durP1;ratioP1;P1;durP2;ratioP2;P2;SDS_P1;SDS_P2;PMS_P1;PMS_P2;Temp;Humidity;BMP_temperature;BMP_pressure;BME280_temperature;BME280_humidity;BME280_pressure;Samples;Min_cycle;Max_cycle;Signal;HPM_P1;HPM_P2
2023/07/29 00:00:13;;;;;;;4.63;3.63;;;;;;;;;;4927013;29;20044;-80
2023/07/29 00:02:41;;;;;;;3.65;3.30;;;;;;;;;;4932922;29;20060;-80
2023/07/29 00:05:09;;;;;;;4.60;3.78;;;;;;;;;;4925043;29;20048;-80
2023/07/29 00:07:38;;;;;;;4.97;4.45;;;;;;;;;;4927462;29;20048;-80
2023/07/29 00:10:07;;;;;;;5.35;3.38;;;;;;;;;;4912636;29;20040;-80
2023/07/29 00:12:34;;;;;;;4.45;3.92;;;;;;;;;;4923697;29;20063;-80
2023/07/29 00:15:04;;;;;;;4.03;3.45;;;;;;;;;;4929379;29;20117;-80
2023/07/29 00:17:35;;;;;;;6.18;4.35;;;;;;;;;;4933962;29;20059;-80
2023/07/29 00:20:07;;;;;;;4.78;3.67;;;;;;;;;;4937905;29;20036;-80
2023/07/29 00:22:39;;;;;;;6.40;3.83;;;;;;;;;;4927975;29;20059;-80
2023/07/29 00:25:09;;;;;;;5.88;4.28;;;;;;;;;;4942964;29;20070;-80
2023/07/29 00:27:38;;;;;;;5.90;3.85;;;;;;;;;;4944582;23;20055;-80
2023/07/29 00:30:07;;;;;;;4.05;3.45;;;;;;;;;;4950323;29;20043;-80
2023/07/29 00:32:36;;;;;;;6.05;4.03;;;;;;;;;;4928520;29;20051;-80
2023/07/29 00:35:07;;;;;;;4.78;3.40;;;;;;;;;;4943090;29;20868;-80
2023/07/29 00:37:34;;;;;;;5.55;4.38;;;;;;;;;;4937694;29;20051;-80
2023/07/29 00:40:01;;;;;;;9.52;3.35;;;;;;;;;;4911396;29;20710;-80
2023/07/29 00:42:31;;;;;;;4.68;3.42;;;;;;;;;;4928121;29;20071;-80
2023/07/29 00:45:00;;;;;;;3.97;3.42;;;;;;;;;;4918530;29;20052;-80
2023/07/29 00:47:27;;;;;;;4.88;3.75;;;;;;;;;;4928796;29;20044;-80
2023/07/29 00:50:01;;;;;;;3.03;2.60;;;;;;;;;;4910195;29;20063;-80
2023/07/29 00:52:28;;;;;;;5.03;3.92;;;;;;;;;;4921214;29;20433;-80
2023/07/29 00:54:58;;;;;;;4.30;3.33;;;;;;;;;;4932650;29;20062;-80
2023/07/29 00:57:28;;;;;;;3.55;2.60;;;;;;;;;;4946206;29;20048;-80
2023/07/29 00:59:58;;;;;;;6.20;3.72;;;;;;;;;;4926205;29;20052;-80
2023/07/29 01:02:32;;;;;;;3.33;2.97;;;;;;;;;;4930341;29;20058;-80
2023/07/29 01:05:01;;;;;;;3.63;2.47;;;;;;;;;;4924019;29;20059;-80
2023/07/29 01:07:31;;;;;;;3.17;2.88;;;;;;;;;;4919197;29;20051;-80
2023/07/29 01:10:04;;;;;;;4.25;2.78;;;;;;;;;;4917765;29;20101;-80
2023/07/29 01:12:37;;;;;;;4.70;3.00;;;;;;;;;;4909985;29;20055;-80
2023/07/29 01:15:12;;;;;;;7.20;3.38;;;;;;;;;;4943513;29;20043;-80
2023/07/29 01:17:43;;;;;;;2.55;2.08;;;;;;;;;;4927951;29;20058;-80
2023/07/29 01:20:15;;;;;;;3.10;2.45;;;;;;;;;;4917914;29;20055;-80
2023/07/29 01:22:45;;;;;;;4.40;2.88;;;;;;;;;;4937441;29;20055;-80
2023/07/29 01:25:14;;;;;;;4.55;2.97;;;;;;;;;;4941031;29;20047;-81
2023/07/29 01:27:41;;;;;;;4.88;2.72;;;;;;;;;;4925359;29;20055;-81
2023/07/29 01:30:09;;;;;;;3.95;3.15;;;;;;;;;;4915880;29;20055;-81
2023/07/29 01:32:41;;;;;;;9.85;3.60;;;;;;;;;;4918935;29;20336;-81
2023/07/29 01:35:17;;;;;;;3.80;3.10;;;;;;;;;;4933639;29;20059;-81
2023/07/29 01:37:49;;;;;;;4.53;2.60;;;;;;;;;;4918316;29;20075;-81
2023/07/29 01:40:19;;;;;;;4.10;3.00;;;;;;;;;;4936684;29;20047;-81
2023/07/29 01:42:46;;;;;;;4.32;3.25;;;;;;;;;;4924903;29;20502;-81
2023/07/29 01:45:16;;;;;;;3.58;2.60;;;;;;;;;;4932606;29;20066;-81
2023/07/29 01:47:43;;;;;;;3.75;2.65;;;;;;;;;;4943777;29;20051;-81
2023/07/29 01:50:11;;;;;;;3.55;2.55;;;;;;;;;;4909586;29;20043;-81
2023/07/29 01:52:42;;;;;;;3.10;2.80;;;;;;;;;;4914561;29;20060;-81
2023/07/29 01:55:09;;;;;;;4.60;2.97;;;;;;;;;;4919412;29;20054;-80
2023/07/29 01:57:38;;;;;;;11.55;2.97;;;;;;;;;;4935574;29;20047;-80
2023/07/29 02:00:09;;;;;;;4.22;3.00;;;;;;;;;;4936519;29;20039;-80
2023/07/29 02:02:43;;;;;;;3.72;2.90;;;;;;;;;;4932724;29;20062;-80
2023/07/29 02:05:13;;;;;;;2.83;2.47;;;;;;;;;;4924400;29;20050;-80
2023/07/29 02:07:40;;;;;;;4.38;2.78;;;;;;;;;;4914295;29;20414;-80
2023/07/29 02:10:09;;;;;;;4.85;2.88;;;;;;;;;;4916698;29;20438;-80
2023/07/29 02:12:37;;;;;;;4.57;3.22;;;;;;;;;;4910884;29;20048;-80
2023/07/29 02:15:09;;;;;;;4.32;2.65;;;;;;;;;;4927506;29;20054;-80
2023/07/29 02:17:36;;;;;;;3.17;2.67;;;;;;;;;;4917710;29;20052;-80
2023/07/29 02:20:05;;;;;;;3.95;2.95;;;;;;;;;;4925080;29;20043;-80
2023/07/29 02:22:33;;;;;;;7.25;2.30;;;;;;;;;;4928436;29;20051;-80
2023/07/29 02:25:00;;;;;;;2.92;2.63;;;;;;;;;;4908268;29;20051;-81
2023/07/29 02:27:33;;;;;;;5.82;3.42;;;;;;;;;;4910830;29;20517;-81
2023/07/29 02:30:05;;;;;;;11.45;3.47;;;;;;;;;;4930832;29;20075;-81
2023/07/29 02:32:34;;;;;;;4.72;3.05;;;;;;;;;;4909466;29;20062;-81
2023/07/29 02:35:01;;;;;;;5.75;4.22;;;;;;;;;;4941949;29;20075;-81
2023/07/29 02:37:29;;;;;;;5.35;3.70;;;;;;;;;;4917073;29;20054;-81
2023/07/29 02:39:56;;;;;;;3.58;3.10;;;;;;;;;;4939075;29;20505;-81
2023/07/29 02:42:23;;;;;;;7.90;3.80;;;;;;;;;;4924553;29;20047;-80
2023/07/29 02:44:53;;;;;;;6.10;3.97;;;;;;;;;;4918082;29;20059;-80
2023/07/29 02:47:22;;;;;;;4.13;2.92;;;;;;;;;;4924299;29;20054;-80
2023/07/29 02:49:51;;;;;;;5.03;3.60;;;;;;;;;;4918024;29;20063;-81
2023/07/29 02:52:18;;;;;;;5.45;3.60;;;;;;;;;;4911791;29;20047;-81
2023/07/29 02:54:45;;;;;;;7.75;4.57;;;;;;;;;;4924723;29;20449;-80
2023/07/29 02:57:17;;;;;;;7.22;4.45;;;;;;;;;;4925503;29;20047;-80
2023/07/29 02:59:46;;;;;;;6.05;4.47;;;;;;;;;;4915162;29;20063;-80
2023/07/29 03:02:16;;;;;;;5.38;4.13;;;;;;;;;;4921501;29;20494;-80
2023/07/29 03:04:48;;;;;;;7.18;6.30;;;;;;;;;;4943875;29;20422;-80
2023/07/29 03:07:19;;;;;;;6.25;4.30;;;;;;;;;;4910814;29;20055;-80
2023/07/29 03:09:49;;;;;;;6.00;4.32;;;;;;;;;;4917205;29;20059;-80
2023/07/29 03:12:16;;;;;;;4.85;3.85;;;;;;;;;;4912687;29;20051;-80
2023/07/29 03:14:43;;;;;;;3.78;3.35;;;;;;;;;;4919602;29;20067;-81
2023/07/29 03:17:13;;;;;;;3.88;3.08;;;;;;;;;;4921847;29;20058;-81
2023/07/29 03:19:40;;;;;;;3.15;2.78;;;;;;;;;;4927618;29;20063;-81
2023/07/29 03:22:11;;;;;;;5.25;2.55;;;;;;;;;;4945835;29;20502;-81
2023/07/29 03:24:38;;;;;;;5.60;2.78;;;;;;;;;;4923701;29;20338;-80
2023/07/29 03:27:09;;;;;;;4.00;2.63;;;;;;;;;;4929133;29;20055;-80
2023/07/29 03:29:36;;;;;;;4.35;3.28;;;;;;;;;;4911439;29;20051;-80
2023/07/29 03:32:05;;;;;;;3.92;2.42;;;;;;;;;;4927271;29;20509;-80
2023/07/29 03:34:35;;;;;;;2.97;2.47;;;;;;;;;;4957359;29;20456;-80
2023/07/29 03:37:05;;;;;;;3.28;2.70;;;;;;;;;;4910628;29;20051;-80
2023/07/29 03:39:36;;;;;;;3.47;2.95;;;;;;;;;;4922750;29;20055;-80
2023/07/29 03:42:04;;;;;;;3.40;3.10;;;;;;;;;;4936141;29;20098;-80
2023/07/29 03:44:35;;;;;;;4.55;2.92;;;;;;;;;;4915978;29;20047;-80
2023/07/29 03:47:05;;;;;;;3.15;2.83;;;;;;;;;;4919835;29;20052;-80
2023/07/29 03:49:35;;;;;;;3.55;2.55;;;;;;;;;;4912930;29;20063;-80
2023/07/29 03:52:09;;;;;;;3.22;2.92;;;;;;;;;;4914623;29;20061;-80
2023/07/29 03:54:40;;;;;;;2.72;2.28;;;;;;;;;;4919289;29;20055;-81
2023/07/29 03:57:08;;;;;;;3.42;2.63;;;;;;;;;;4924297;29;20407;-81
2023/07/29 03:59:35;;;;;;;2.75;2.35;;;;;;;;;;4938351;29;20047;-81
2023/07/29 04:02:02;;;;;;;4.88;2.47;;;;;;;;;;4917537;29;20052;-81
2023/07/29 04:04:29;;;;;;;3.20;2.22;;;;;;;;;;4936283;29;20054;-81
2023/07/29 04:06:59;;;;;;;3.25;2.95;;;;;;;;;;4942695;29;20058;-81
2023/07/29 04:09:29;;;;;;;3.83;2.88;;;;;;;;;;4913026;29;20052;-81
2023/07/29 04:12:00;;;;;;;2.63;2.33;;;;;;;;;;4918203;29;20046;-81
2023/07/29 04:14:27;;;;;;;3.78;2.33;;;;;;;;;;4930681;29;20417;-80
2023/07/29 04:16:54;;;;;;;3.03;2.53;;;;;;;;;;4917957;29;20052;-80
2023/07/29 04:19:21;;;;;;;2.55;2.33;;;;;;;;;;4934762;29;20044;-80
2023/07/29 04:21:51;;;;;;;3.95;2.75;;;;;;;;;;4918427;29;20058;-80
2023/07/29 04:24:23;;;;;;;3.10;2.70;;;;;;;;;;4930296;29;20512;-80
2023/07/29 04:26:55;;;;;;;3.28;2.60;;;;;;;;;;4915784;29;20075;-80
2023/07/29 04:29:23;;;;;;;4.15;2.85;;;;;;;;;;4910583;29;20051;-80
2023/07/29 04:31:54;;;;;;;3.70;3.28;;;;;;;;;;4930835;29;20054;-80
2023/07/29 04:34:21;;;;;;;5.43;2.45;;;;;;;;;;4917520;29;20059;-81
2023/07/29 04:36:48;;;;;;;5.88;3.83;;;;;;;;;;4914132;29;20494;-81
2023/07/29 04:39:18;;;;;;;5.80;2.75;;;;;;;;;;4917834;29;20058;-81
2023/07/29 04:41:48;;;;;;;2.88;2.55;;;;;;;;;;4909717;29;20421;-81
2023/07/29 04:44:16;;;;;;;3.92;2.35;;;;;;;;;;4916663;29;20051;-81
2023/07/29 04:46:45;;;;;;;5.75;2.90;;;;;;;;;;4927211;29;20062;-81
2023/07/29 04:49:12;;;;;;;3.20;2.95;;;;;;;;;;4913802;29;20051;-81
2023/07/29 04:51:39;;;;;;;4.32;3.53;;;;;;;;;;4916419;29;20040;-81
2023/07/29 04:54:06;;;;;;;7.85;3.55;;;;;;;;;;4910193;29;20082;-81
2023/07/29 04:56:36;;;;;;;10.60;3.90;;;;;;;;;;4918947;29;20062;-81
2023/07/29 04:59:08;;;;;;;4.13;3.05;;;;;;;;;;4929002;29;20055;-81
2023/07/29 05:01:37;;;;;;;4.10;3.03;;;;;;;;;;4930621;29;20055;-81
2023/07/29 05:04:08;;;;;;;12.45;4.38;;;;;;;;;;4907731;29;20059;-81
2023/07/29 05:06:38;;;;;;;3.88;3.22;;;;;;;;;;4918645;29;20062;-81
2023/07/29 05:09:14;;;;;;;4.85;3.08;;;;;;;;;;4918327;29;20058;-81
2023/07/29 05:11:41;;;;;;;2.92;2.53;;;;;;;;;;4908885;29;20413;-81
2023/07/29 05:14:09;;;;;;;6.45;2.17;;;;;;;;;;4917460;29;20051;-81
2023/07/29 05:16:36;;;;;;;6.90;3.83;;;;;;;;;;4923784;29;20055;-81
2023/07/29 05:19:05;;;;;;;8.07;2.72;;;;;;;;;;4922999;29;20070;-80
2023/07/29 05:21:37;;;;;;;4.18;2.38;;;;;;;;;;4916595;29;20047;-80
2023/07/29 05:24:07;;;;;;;3.20;1.75;;;;;;;;;;4908560;29;20082;-80
2023/07/29 05:26:34;;;;;;;2.35;1.33;;;;;;;;;;4913880;29;20544;-80
2023/07/29 05:29:02;;;;;;;3.03;1.35;;;;;;;;;;4926225;29;20043;-80
2023/07/29 05:31:29;;;;;;;1.88;1.50;;;;;;;;;;4913984;29;20421;-80
2023/07/29 05:33:57;;;;;;;1.67;1.15;;;;;;;;;;4929305;29;20047;-80
2023/07/29 05:36:24;;;;;;;1.67;1.38;;;;;;;;;;4930185;29;20054;-81
2023/07/29 05:38:54;;;;;;;1.17;1.02;;;;;;;;;;4930116;29;20044;-80
2023/07/29 05:41:21;;;;;;;1.83;0.95;;;;;;;;;;4912475;29;20051;-80
2023/07/29 05:43:48;;;;;;;3.30;1.40;;;;;;;;;;4923009;29;20514;-80
2023/07/29 05:46:20;;;;;;;4.20;1.30;;;;;;;;;;4914315;29;20066;-81
2023/07/29 05:48:50;;;;;;;2.55;1.10;;;;;;;;;;4926620;29;20051;-81
2023/07/29 05:51:20;;;;;;;3.42;1.00;;;;;;;;;;4911443;29;20055;-79
2023/07/29 05:53:49;;;;;;;1.55;1.13;;;;;;;;;;4909627;29;20529;-79
2023/07/29 05:56:20;;;;;;;4.85;1.73;;;;;;;;;;4910921;29;20058;-79
2023/07/29 05:58:50;;;;;;;2.90;1.40;;;;;;;;;;4930666;29;20055;-79
2023/07/29 06:01:21;;;;;;;2.00;1.50;;;;;;;;;;4922425;29;20066;-79
2023/07/29 06:03:48;;;;;;;2.35;1.55;;;;;;;;;;4917160;29;20043;-80
2023/07/29 06:06:16;;;;;;;1.50;1.40;;;;;;;;;;4949763;29;20530;-80
2023/07/29 06:08:46;;;;;;;2.17;1.60;;;;;;;;;;4909355;29;20051;-80
2023/07/29 06:11:13;;;;;;;2.33;1.60;;;;;;;;;;4924610;29;20123;-80
2023/07/29 06:13:44;;;;;;;1.85;1.35;;;;;;;;;;4925652;29;20475;-80
2023/07/29 06:16:12;;;;;;;1.55;1.30;;;;;;;;;;4931723;29;20056;-80
2023/07/29 06:18:40;;;;;;;2.78;1.48;;;;;;;;;;4941454;29;20051;-80
2023/07/29 06:21:12;;;;;;;2.05;1.63;;;;;;;;;;4939474;29;20421;-80
2023/07/29 06:23:39;;;;;;;2.35;2.13;;;;;;;;;;4938931;29;20063;-80
2023/07/29 06:26:09;;;;;;;2.40;1.73;;;;;;;;;;4927671;29;20052;-80
2023/07/29 06:28:36;;;;;;;2.25;1.45;;;;;;;;;;4958467;23;20054;-80
2023/07/29 06:31:06;;;;;;;2.60;1.98;;;;;;;;;;4948493;28;20055;-80
2023/07/29 06:33:34;;;;;;;6.00;1.75;;;;;;;;;;4985089;28;20051;-80
2023/07/29 06:36:02;;;;;;;3.65;1.85;;;;;;;;;;4954201;28;20062;-81
2023/07/29 06:38:29;;;;;;;2.38;1.85;;;;;;;;;;4966309;28;20056;-81
2023/07/29 06:40:56;;;;;;;2.35;2.13;;;;;;;;;;4936613;29;20119;-82
2023/07/29 06:43:26;;;;;;;4.32;2.30;;;;;;;;;;4934645;28;20047;-81
2023/07/29 06:45:56;;;;;;;1.55;1.42;;;;;;;;;;4944691;29;20071;-80
2023/07/29 06:48:28;;;;;;;2.85;1.75;;;;;;;;;;4948038;28;20054;-81
2023/07/29 06:51:00;;;;;;;2.78;1.60;;;;;;;;;;4961517;28;20054;-80
2023/07/29 06:53:27;;;;;;;2.67;2.08;;;;;;;;;;4935679;28;20039;-81
2023/07/29 06:55:56;;;;;;;2.95;1.60;;;;;;;;;;4947814;29;20516;-81
2023/07/29 06:58:25;;;;;;;2.78;1.75;;;;;;;;;;4961611;29;20066;-82
2023/07/29 07:00:52;;;;;;;2.60;1.88;;;;;;;;;;4941133;29;20062;-80
2023/07/29 07:03:19;;;;;;;2.53;2.00;;;;;;;;;;4959840;29;20043;-80
2023/07/29 07:05:51;;;;;;;2.88;2.00;;;;;;;;;;4963014;29;20050;-81
2023/07/29 07:08:18;;;;;;;5.05;2.78;;;;;;;;;;4929780;29;20062;-80
2023/07/29 07:10:47;;;;;;;3.92;1.80;;;;;;;;;;4962186;29;20055;-81
2023/07/29 07:13:15;;;;;;;1.92;1.77;;;;;;;;;;4921207;29;20050;-80
2023/07/29 07:15:43;;;;;;;1.85;1.65;;;;;;;;;;4943658;29;20051;-81
2023/07/29 07:18:10;;;;;;;2.88;2.13;;;;;;;;;;4944812;28;20505;-82
2023/07/29 07:20:37;;;;;;;3.65;1.98;;;;;;;;;;4931571;28;20058;-81
2023/07/29 07:23:11;;;;;;;4.88;1.92;;;;;;;;;;4950928;29;20058;-81
2023/07/29 07:25:39;;;;;;;2.53;2.00;;;;;;;;;;4952543;29;20054;-81
2023/07/29 07:28:06;;;;;;;2.97;1.73;;;;;;;;;;4941835;29;21025;-81
2023/07/29 07:30:33;;;;;;;3.53;1.48;;;;;;;;;;4955925;29;20047;-81
2023/07/29 07:33:00;;;;;;;2.75;1.50;;;;;;;;;;4945886;29;20058;-81
2023/07/29 07:35:30;;;;;;;2.58;1.83;;;;;;;;;;4962928;28;20054;-80
2023/07/29 07:37:58;;;;;;;3.33;1.90;;;;;;;;;;4928852;29;20056;-81
2023/07/29 07:40:27;;;;;;;2.45;1.48;;;;;;;;;;4958663;29;20062;-81
2023/07/29 07:42:57;;;;;;;3.55;2.55;;;;;;;;;;4945310;29;20066;-82
2023/07/29 07:45:24;;;;;;;2.85;2.35;;;;;;;;;;4930773;29;20052;-81
2023/07/29 07:47:52;;;;;;;3.17;2.22;;;;;;;;;;4948013;29;20055;-80
2023/07/29 07:50:20;;;;;;;3.72;2.83;;;;;;;;;;4929549;29;20071;-80
2023/07/29 07:52:50;;;;;;;3.00;2.33;;;;;;;;;;4948987;29;20058;-80
2023/07/29 07:55:19;;;;;;;2.00;1.80;;;;;;;;;;4946351;29;20058;-80
2023/07/29 07:57:48;;;;;;;1.90;1.63;;;;;;;;;;4962989;29;20047;-80
2023/07/29 08:00:17;;;;;;;2.25;1.92;;;;;;;;;;4928636;29;20088;-81
2023/07/29 08:02:45;;;;;;;2.63;2.28;;;;;;;;;;4940140;29;20058;-81
2023/07/29 08:05:12;;;;;;;2.72;2.40;;;;;;;;;;4928269;29;20043;-81
2023/07/29 08:07:41;;;;;;;3.40;2.63;;;;;;;;;;4944589;29;20062;-81
2023/07/29 08:10:11;;;;;;;2.65;2.45;;;;;;;;;;4948879;29;20426;-81
2023/07/29 08:12:38;;;;;;;2.35;2.15;;;;;;;;;;4936888;29;20051;-81
2023/07/29 08:15:08;;;;;;;1.75;1.65;;;;;;;;;;4961336;29;20055;-81
2023/07/29 08:17:35;;;;;;;4.13;2.75;;;;;;;;;;4930136;28;20057;-81
2023/07/29 08:20:03;;;;;;;2.85;2.55;;;;;;;;;;4948880;29;20051;-80
2023/07/29 08:22:31;;;;;;;2.83;2.25;;;;;;;;;;4943861;29;20047;-81
2023/07/29 08:25:00;;;;;;;2.05;1.85;;;;;;;;;;4956226;29;20047;-81
2023/07/29 08:27:27;;;;;;;3.30;2.17;;;;;;;;;;4948626;29;20047;-81
2023/07/29 08:29:57;;;;;;;2.25;1.65;;;;;;;;;;4945875;29;20067;-81
2023/07/29 08:32:28;;;;;;;2.83;2.38;;;;;;;;;;4940529;29;20063;-81
2023/07/29 08:34:57;;;;;;;2.25;1.52;;;;;;;;;;4930856;29;20051;-81
2023/07/29 08:37:26;;;;;;;1.73;1.63;;;;;;;;;;4954367;29;20046;-81
2023/07/29 08:39:56;;;;;;;2.03;1.65;;;;;;;;;;4942535;29;20427;-81
2023/07/29 08:42:24;;;;;;;3.22;2.08;;;;;;;;;;4940757;29;20055;-81
2023/07/29 08:44:52;;;;;;;2.83;1.60;;;;;;;;;;4941360;29;20055;-81
2023/07/29 08:47:24;;;;;;;2.60;1.80;;;;;;;;;;4961248;28;20078;-81
2023/07/29 08:49:53;;;;;;;3.20;1.38;;;;;;;;;;4941818;29;20035;-81
2023/07/29 08:52:21;;;;;;;2.33;2.13;;;;;;;;;;4945215;28;20047;-81
2023/07/29 08:54:48;;;;;;;4.18;2.03;;;;;;;;;;4946977;29;20037;-81
2023/07/29 08:57:21;;;;;;;4.18;1.65;;;;;;;;;;4940536;29;20053;-81
2023/07/29 08:59:48;;;;;;;2.60;2.10;;;;;;;;;;4948667;29;20057;-82
2023/07/29 09:02:16;;;;;;;1.95;1.55;;;;;;;;;;4934322;29;20052;-82
2023/07/29 09:04:48;;;;;;;3.17;1.40;;;;;;;;;;4945309;29;20050;-80
2023/07/29 09:07:20;;;;;;;3.50;1.90;;;;;;;;;;4967776;29;20047;-80
2023/07/29 09:09:47;;;;;;;4.07;1.65;;;;;;;;;;4968812;29;20051;-81
2023/07/29 09:12:15;;;;;;;2.38;1.52;;;;;;;;;;4935289;29;20044;-81
2023/07/29 09:14:44;;;;;;;1.88;1.48;;;;;;;;;;4953583;29;20426;-82
2023/07/29 09:17:15;;;;;;;2.10;1.45;;;;;;;;;;4949182;29;20056;-80
2023/07/29 09:19:48;;;;;;;2.08;1.88;;;;;;;;;;4951976;29;20519;-80
2023/07/29 09:22:20;;;;;;;2.20;1.50;;;;;;;;;;4954187;29;20520;-80
2023/07/29 09:24:48;;;;;;;1.83;1.50;;;;;;;;;;4962984;29;20045;-80
2023/07/29 09:27:24;;;;;;;1.90;1.67;;;;;;;;;;4936515;29;20055;-80
2023/07/29 09:29:52;;;;;;;1.58;1.35;;;;;;;;;;4951372;29;20050;-81
2023/07/29 09:32:20;;;;;;;2.92;1.83;;;;;;;;;;4966164;29;20058;-82
2023/07/29 09:34:48;;;;;;;2.63;1.30;;;;;;;;;;4943790;29;20406;-82
2023/07/29 09:37:20;;;;;;;2.40;1.60;;;;;;;;;;4962125;29;20063;-82
2023/07/29 09:39:47;;;;;;;1.90;1.70;;;;;;;;;;4934419;29;20058;-82
2023/07/29 09:42:20;;;;;;;3.03;1.52;;;;;;;;;;4937837;29;20062;-82
2023/07/29 09:44:50;;;;;;;5.95;1.80;;;;;;;;;;4945403;29;20035;-82
2023/07/29 09:47:22;;;;;;;2.15;1.40;;;;;;;;;;4950392;28;20062;-82
2023/07/29 09:49:50;;;;;;;2.03;1.70;;;;;;;;;;4947093;29;20062;-80
2023/07/29 09:52:18;;;;;;;1.92;1.48;;;;;;;;;;4950830;29;20043;-81
2023/07/29 09:54:47;;;;;;;1.73;1.52;;;;;;;;;;4963473;29;20039;-81
2023/07/29 09:57:19;;;;;;;4.15;1.60;;;;;;;;;;4947557;29;20054;-80
2023/07/29 09:59:54;;;;;;;1.55;1.30;;;;;;;;;;4960718;29;20062;-80
2023/07/29 10:02:27;;;;;;;1.63;1.50;;;;;;;;;;4965856;29;20053;-81
2023/07/29 10:04:57;;;;;;;1.42;1.27;;;;;;;;;;4932467;29;20043;-81
2023/07/29 10:07:25;;;;;;;3.00;1.80;;;;;;;;;;4964602;29;20058;-83
2023/07/29 10:09:57;;;;;;;3.80;1.90;;;;;;;;;;4948302;29;20047;-81
2023/07/29 10:12:25;;;;;;;1.45;1.35;;;;;;;;;;4965793;29;20054;-81
2023/07/29 10:14:53;;;;;;;2.25;1.75;;;;;;;;;;4948928;29;20047;-81
2023/07/29 10:17:21;;;;;;;2.10;1.80;;;;;;;;;;4963558;29;20059;-81
2023/07/29 10:19:50;;;;;;;3.10;1.52;;;;;;;;;;4936195;29;20062;-81
2023/07/29 10:22:21;;;;;;;2.58;1.30;;;;;;;;;;4963595;29;20050;-81
2023/07/29 10:24:49;;;;;;;1.90;1.55;;;;;;;;;;4946657;29;20043;-80
2023/07/29 10:27:19;;;;;;;10.60;2.90;;;;;;;;;;4961827;29;20594;-79
2023/07/29 10:29:46;;;;;;;1.55;1.45;;;;;;;;;;4959386;29;20043;-80
2023/07/29 10:32:14;;;;;;;2.75;1.50;;;;;;;;;;4936622;29;20059;-82
2023/07/29 10:34:46;;;;;;;;;;;;;;;;;;4952582;29;20067;-80
2023/07/29 10:37:17;;;;;;;1.80;1.50;;;;;;;;;;4947669;29;19945;-80
2023/07/29 10:39:53;;;;;;;1.45;1.10;;;;;;;;;;4947747;29;20051;-80
2023/07/29 10:42:27;;;;;;;8.93;2.53;;;;;;;;;;4930584;29;20066;-79
2023/07/29 10:44:54;;;;;;;2.08;1.88;;;;;;;;;;4965553;29;20047;-81
2023/07/29 10:47:26;;;;;;;3.83;1.98;;;;;;;;;;4934547;29;20082;-81
2023/07/29 10:49:55;;;;;;;1.67;1.58;;;;;;;;;;4966512;29;20058;-81
2023/07/29 10:52:38;;;;;;;4.00;1.65;;;;;;;;;;4947955;29;20139;-80
2023/07/29 10:55:26;;;;;;;2.50;2.30;;;;;;;;;;4943891;29;20043;-81
2023/07/29 10:58:05;;;;;;;3.63;2.13;;;;;;;;;;4952164;29;20047;-80
2023/07/29 11:00:33;;;;;;;4.78;1.77;;;;;;;;;;4952636;29;20054;-80
2023/07/29 11:03:01;;;;;;;2.83;1.73;;;;;;;;;;4937763;29;20058;-81
2023/07/29 11:05:43;;;;;;;1.63;1.45;;;;;;;;;;4949849;29;20058;-80
2023/07/29 11:08:27;;;;;;;5.45;1.90;;;;;;;;;;4949016;29;20051;-81
2023/07/29 11:11:02;;;;;;;2.15;1.75;;;;;;;;;;4930570;29;20073;-81
2023/07/29 11:13:34;;;;;;;4.75;1.42;;;;;;;;;;4935347;29;20047;-81
2023/07/29 11:16:04;;;;;;;2.20;1.63;;;;;;;;;;4924204;29;20055;-81
2023/07/29 11:18:33;;;;;;;2.60;2.25;;;;;;;;;;4941019;29;20055;-81
2023/07/29 11:21:01;;;;;;;3.85;1.85;;;;;;;;;;4930090;29;20675;-81
2023/07/29 11:23:32;;;;;;;2.83;1.75;;;;;;;;;;4932889;29;20043;-81
2023/07/29 11:26:01;;;;;;;1.85;1.42;;;;;;;;;;4961167;29;20043;-82
2023/07/29 11:28:29;;;;;;;1.77;1.58;;;;;;;;;;4947356;29;20055;-80
2023/07/29 11:30:58;;;;;;;1.50;1.10;;;;;;;;;;4953256;29;20055;-81
2023/07/29 11:33:28;;;;;;;2.88;1.30;;;;;;;;;;4949075;29;20062;-78
2023/07/29 11:38:56;;;;;;;1.70;1.60;;;;;;;;;;4934549;28;20074;-90
2023/07/29 11:41:26;;;;;;;2.78;1.67;;;;;;;;;;4916887;29;20083;-95
2023/07/29 12:26:30;;;;;;;2.35;1.58;;;;;;;;;;4914897;29;20056;-93
2023/07/29 12:29:00;;;;;;;1.75;1.52;;;;;;;;;;4935169;29;20043;-92
2023/07/29 12:31:34;;;;;;;2.03;1.00;;;;;;;;;;4906302;29;20066;-92
2023/07/29 12:34:01;;;;;;;3.92;1.23;;;;;;;;;;4918396;29;20062;-92
2023/07/29 12:36:42;;;;;;;1.92;1.08;;;;;;;;;;4916578;29;20040;-93
2023/07/29 12:39:19;;;;;;;2.15;1.25;;;;;;;;;;4936850;29;20402;-93
2023/07/29 12:41:49;;;;;;;3.90;1.05;;;;;;;;;;4920991;29;20059;-93
2023/07/29 12:44:17;;;;;;;8.52;1.35;;;;;;;;;;4923609;29;20055;-91
2023/07/29 12:46:44;;;;;;;2.65;1.02;;;;;;;;;;4937559;29;20052;-93
2023/07/29 12:49:12;;;;;;;1.35;1.05;;;;;;;;;;4920859;29;20055;-93
2023/07/29 12:51:42;;;;;;;1.70;1.48;;;;;;;;;;4922233;29;20068;-93
2023/07/29 12:54:09;;;;;;;1.25;1.05;;;;;;;;;;4902653;29;20059;-92
2023/07/29 12:56:39;;;;;;;1.52;1.30;;;;;;;;;;4919879;29;20066;-91
2023/07/29 12:59:07;;;;;;;1.20;1.05;;;;;;;;;;4935741;29;20051;-94
2023/07/29 13:05:04;;;;;;;2.65;1.27;;;;;;;;;;4916870;29;20505;-93
2023/07/29 13:07:31;;;;;;;1.20;1.00;;;;;;;;;;4935564;29;20059;-93
2023/07/29 13:09:59;;;;;;;1.70;1.50;;;;;;;;;;4938376;29;20047;-93
2023/07/29 13:12:26;;;;;;;4.55;1.30;;;;;;;;;;4936941;29;20048;-91
2023/07/29 13:14:58;;;;;;;2.00;1.73;;;;;;;;;;4920037;29;20513;-92
2023/07/29 13:17:25;;;;;;;1.15;1.05;;;;;;;;;;4920094;29;20067;-93
2023/07/29 13:19:55;;;;;;;1.45;1.35;;;;;;;;;;4921022;29;20058;-92
2023/07/29 13:22:23;;;;;;;1.85;1.30;;;;;;;;;;4918185;29;20051;-94
2023/07/29 13:24:50;;;;;;;3.67;1.65;;;;;;;;;;4902396;29;20059;-93
2023/07/29 13:27:17;;;;;;;1.95;1.30;;;;;;;;;;4933619;29;20048;-93
2023/07/29 13:29:45;;;;;;;2.33;1.30;;;;;;;;;;4922083;29;20066;-93
2023/07/29 13:32:14;;;;;;;1.83;1.27;;;;;;;;;;4917743;29;20227;-93
2023/07/29 13:34:42;;;;;;;11.65;2.65;;;;;;;;;;4933478;29;20047;-93
2023/07/29 13:37:09;;;;;;;2.22;1.40;;;;;;;;;;4917582;29;20044;-94
2023/07/29 13:39:36;;;;;;;1.45;1.27;;;;;;;;;;4938342;29;20067;-92
2023/07/29 13:42:04;;;;;;;2.20;1.42;;;;;;;;;;4920364;29;20066;-93
2023/07/29 13:44:31;;;;;;;2.65;1.77;;;;;;;;;;4936525;29;20051;-92
2023/07/29 13:46:59;;;;;;;1.50;1.30;;;;;;;;;;4939181;29;20051;-92
2023/07/29 13:49:28;;;;;;;1.55;1.30;;;;;;;;;;4921753;29;20536;-92
2023/07/29 13:51:55;;;;;;;1.85;1.40;;;;;;;;;;4926989;29;20051;-91
2023/07/29 13:54:22;;;;;;;2.05;1.50;;;;;;;;;;4936938;29;20046;-94
2023/07/29 13:56:50;;;;;;;1.92;1.20;;;;;;;;;;4936356;29;20052;-93
2023/07/29 13:59:17;;;;;;;1.02;0.90;;;;;;;;;;4921276;29;20064;-92
2023/07/29 14:01:45;;;;;;;1.58;1.10;;;;;;;;;;4920439;29;20079;-93
2023/07/29 14:04:12;;;;;;;1.80;1.40;;;;;;;;;;4917143;29;20047;-93
2023/07/29 14:06:43;;;;;;;1.88;1.38;;;;;;;;;;4918911;29;20052;-93
2023/07/29 14:09:13;;;;;;;2.15;1.50;;;;;;;;;;4917848;29;20063;-94
2023/07/29 14:11:40;;;;;;;1.73;1.48;;;;;;;;;;4919176;29;20063;-91
2023/07/29 14:14:08;;;;;;;1.67;1.30;;;;;;;;;;4917223;29;20059;-93
2023/07/29 14:16:35;;;;;;;2.47;1.30;;;;;;;;;;4934374;29;20055;-93
2023/07/29 14:19:03;;;;;;;2.80;1.67;;;;;;;;;;4915743;29;20056;-93
2023/07/29 14:21:35;;;;;;;1.52;1.27;;;;;;;;;;4914635;29;20764;-93
2023/07/29 14:24:04;;;;;;;1.50;1.17;;;;;;;;;;4917961;29;20067;-92
2023/07/29 14:26:32;;;;;;;1.70;0.98;;;;;;;;;;4938022;29;20059;-93
2023/07/29 14:29:02;;;;;;;2.13;1.33;;;;;;;;;;4937206;29;20432;-92
2023/07/29 14:31:29;;;;;;;1.38;1.23;;;;;;;;;;4921011;29;20052;-93
2023/07/29 14:33:56;;;;;;;1.23;1.13;;;;;;;;;;4919896;29;20047;-92
2023/07/29 14:36:24;;;;;;;2.15;1.17;;;;;;;;;;4933685;29;20417;-91
2023/07/29 14:38:51;;;;;;;1.42;1.15;;;;;;;;;;4937383;29;20414;-93
2023/07/29 14:41:22;;;;;;;2.63;1.55;;;;;;;;;;4921552;29;20063;-92
2023/07/29 14:43:52;;;;;;;1.40;1.30;;;;;;;;;;4918825;29;20630;-93
2023/07/29 14:46:20;;;;;;;2.17;1.30;;;;;;;;;;4919799;29;20047;-93
2023/07/29 14:48:47;;;;;;;1.70;1.42;;;;;;;;;;4922060;29;20058;-93
2023/07/29 14:51:15;;;;;;;1.85;1.30;;;;;;;;;;4912240;29;20066;-92
2023/07/29 14:53:43;;;;;;;2.50;1.48;;;;;;;;;;4920731;29;20052;-92
2023/07/29 14:56:10;;;;;;;1.55;1.45;;;;;;;;;;4906372;29;20063;-93
2023/07/29 14:58:39;;;;;;;1.27;1.17;;;;;;;;;;4940079;29;20137;-92
2023/07/29 15:01:06;;;;;;;1.20;1.10;;;;;;;;;;4924045;29;20057;-93
2023/07/29 15:03:36;;;;;;;1.75;1.08;;;;;;;;;;4906992;29;20059;-93
2023/07/29 15:06:04;;;;;;;2.55;1.40;;;;;;;;;;4924946;29;20075;-92
2023/07/29 15:08:31;;;;;;;2.03;1.50;;;;;;;;;;4923701;29;20497;-92
2023/07/29 15:11:01;;;;;;;2.80;1.60;;;;;;;;;;4923267;29;20512;-92
2023/07/29 15:13:31;;;;;;;1.88;1.35;;;;;;;;;;4923634;29;20437;-93
2023/07/29 15:16:00;;;;;;;3.30;1.70;;;;;;;;;;4927309;29;20059;-92
2023/07/29 15:18:30;;;;;;;2.13;1.60;;;;;;;;;;4925454;29;20043;-93
2023/07/29 15:20:59;;;;;;;2.35;1.80;;;;;;;;;;4927337;29;20055;-92
2023/07/29 15:23:27;;;;;;;1.10;0.88;;;;;;;;;;4941923;29;20055;-92
2023/07/29 15:25:54;;;;;;;1.30;1.17;;;;;;;;;;4936083;28;20050;-91
2023/07/29 15:28:21;;;;;;;2.17;1.40;;;;;;;;;;4944360;28;20042;-90
2023/07/29 15:30:53;;;;;;;1.45;1.35;;;;;;;;;;4934447;29;20043;-92
2023/07/29 15:33:22;;;;;;;2.35;1.20;;;;;;;;;;4919810;29;20048;-93
2023/07/29 15:35:49;;;;;;;1.48;1.15;;;;;;;;;;4905746;29;20055;-93
2023/07/29 15:38:17;;;;;;;2.60;1.38;;;;;;;;;;4937966;29;20059;-93
2023/07/29 15:40:44;;;;;;;1.48;1.17;;;;;;;;;;4917975;29;20063;-93
2023/07/29 15:43:12;;;;;;;1.98;1.20;;;;;;;;;;4903744;29;20059;-92